Time;durP1;ratioP1;P1;durP2;ratioP2;P2;SDS_P1;SDS_P2;PMS_P1;PMS_P2;Temp;Humidity;BMP_temperature;BMP_pressure;BME280_temperature;BME280_humidity;BME280_pressure;Samples;Min_cycle;Max_cycle;Signal;HPM_P1;HPM_P2
2023/06/05 00:01:20;;;;;;;;;;;24.70;40.00;;;;;;1565358;74;779;-64
2023/06/05 00:03:24;;;;;;;;;;;24.80;39.90;;;;;;1564988;74;774;-65
2023/06/05 00:05:27;;;;;;;;;;;24.80;39.90;;;;;;1555490;74;828;-65
2023/06/05 00:07:29;;;;;;;;;;;24.80;39.80;;;;;;1549004;74;1144;-64
2023/06/05 00:09:31;;;;;;;;;;;24.80;39.80;;;;;;1567068;74;820;-64
2023/06/05 00:11:33;;;;;;;;;;;24.80;39.90;;;;;;1554642;74;746;-64
2023/06/05 00:13:35;;;;;;;;;;;24.80;39.80;;;;;;1558047;74;688;-65
2023/06/05 00:15:37;;;;;;;;;;;24.80;39.80;;;;;;1558355;74;1906;-64
2023/06/05 00:17:39;;;;;;;;;;;24.80;39.80;;;;;;1561560;74;1153;-65
2023/06/05 00:19:41;;;;;;;;;;;24.80;39.80;;;;;;1559532;74;684;-67
2023/06/05 00:21:42;;;;;;;;;;;24.80;39.90;;;;;;1557084;74;685;-65
2023/06/05 00:23:44;;;;;;;;;;;24.80;40.00;;;;;;1566050;74;748;-65
2023/06/05 00:25:46;;;;;;;;;;;24.80;40.00;;;;;;1568524;74;847;-65
2023/06/05 00:27:48;;;;;;;;;;;24.80;40.20;;;;;;1566909;74;1086;-64
2023/06/05 00:29:50;;;;;;;;;;;24.80;40.20;;;;;;1562736;74;751;-65
2023/06/05 00:31:53;;;;;;;;;;;24.80;40.00;;;;;;1568279;74;768;-66
2023/06/05 00:33:55;;;;;;;;;;;24.80;40.10;;;;;;1564259;74;769;-65
2023/06/05 00:35:57;;;;;;;;;;;24.80;40.20;;;;;;1545698;74;711;-65
2023/06/05 00:37:59;;;;;;;;;;;24.70;40.20;;;;;;1558328;74;1137;-65
2023/06/05 00:40:01;;;;;;;;;;;24.80;40.10;;;;;;1568942;74;1502;-65
2023/06/05 00:42:03;;;;;;;;;;;24.80;40.00;;;;;;1564225;74;1065;-65
2023/06/05 00:44:05;;;;;;;;;;;24.80;40.00;;;;;;1559255;75;700;-65
2023/06/05 00:46:07;;;;;;;;;;;24.80;40.00;;;;;;1545264;75;762;-65
2023/06/05 00:48:10;;;;;;;;;;;24.80;40.00;;;;;;1549547;75;1160;-65
2023/06/05 00:50:12;;;;;;;;;;;24.80;40.10;;;;;;1559861;75;705;-65
2023/06/05 00:52:15;;;;;;;;;;;24.80;40.20;;;;;;1558008;75;796;-65
2023/06/05 00:54:17;;;;;;;;;;;24.80;40.10;;;;;;1559128;75;1924;-65
2023/06/05 00:56:20;;;;;;;;;;;24.80;40.10;;;;;;1550488;75;838;-65
2023/06/05 00:58:22;;;;;;;;;;;24.80;40.10;;;;;;1556150;75;1163;-65
2023/06/05 01:00:25;;;;;;;;;;;24.80;40.00;;;;;;1567507;75;738;-65
2023/06/05 01:02:28;;;;;;;;;;;24.80;40.00;;;;;;1560643;75;776;-65
2023/06/05 01:04:32;;;;;;;;;;;24.80;40.00;;;;;;1559183;75;770;-65
2023/06/05 01:06:34;;;;;;;;;;;24.80;40.10;;;;;;1559606;75;986;-65
2023/06/05 01:08:41;;;;;;;;;;;24.80;40.00;;;;;;1556073;75;1110;-65
2023/06/05 01:10:40;;;;;;;;;;;24.80;40.00;;;;;;1553697;75;1646;-65
2023/06/05 01:12:43;;;;;;;;;;;24.80;40.00;;;;;;1557207;75;724;-65
2023/06/05 01:14:49;;;;;;;;;;;24.80;40.00;;;;;;1569025;75;1923;-65
2023/06/05 01:16:53;;;;;;;;;;;24.90;40.20;;;;;;1558759;75;760;-65
2023/06/05 01:19:01;;;;;;;;;;;24.80;40.10;;;;;;1562171;75;850;-65
2023/06/05 01:21:01;;;;;;;;;;;24.80;40.10;;;;;;1554955;75;1622;-66
2023/06/05 01:23:03;;;;;;;;;;;24.80;40.10;;;;;;1553437;75;764;-66
2023/06/05 01:25:07;;;;;;;;;;;24.80;40.20;;;;;;1558665;75;753;-64
2023/06/05 01:27:10;;;;;;;;;;;24.80;40.30;;;;;;1556944;75;1133;-66
2023/06/05 01:29:12;;;;;;;;;;;24.80;40.50;;;;;;1559406;75;2034;-66
2023/06/05 01:31:15;;;;;;;;;;;24.80;40.70;;;;;;1557722;75;727;-66
2023/06/05 01:33:20;;;;;;;;;;;24.80;40.50;;;;;;1554338;75;722;-69
2023/06/05 01:35:27;;;;;;;;;;;24.80;40.40;;;;;;1555224;75;1932;-66
2023/06/05 01:37:25;;;;;;;;;;;24.80;40.40;;;;;;1559981;74;1629;-66
2023/06/05 01:39:27;;;;;;;;;;;24.80;40.30;;;;;;1549853;75;708;-65
2023/06/05 01:41:29;;;;;;;;;;;24.80;40.40;;;;;;1554456;75;778;-63
2023/06/05 01:43:31;;;;;;;;;;;24.80;40.60;;;;;;1565314;75;1080;-64
2023/06/05 01:45:33;;;;;;;;;;;24.80;40.70;;;;;;1554567;75;690;-66
2023/06/05 01:47:37;;;;;;;;;;;24.90;40.80;;;;;;1551482;75;1158;-66
2023/06/05 01:49:39;;;;;;;;;;;24.80;40.60;;;;;;1554873;75;1497;-65
2023/06/05 01:51:41;;;;;;;;;;;24.80;40.50;;;;;;1549616;75;734;-64
2023/06/05 01:53:43;;;;;;;;;;;24.90;40.70;;;;;;1553671;75;730;-65
2023/06/05 01:55:46;;;;;;;;;;;24.80;40.60;;;;;;1547302;75;1946;-64
2023/06/05 01:57:48;;;;;;;;;;;24.80;40.50;;;;;;1552088;75;1174;-65
2023/06/05 01:59:50;;;;;;;;;;;24.80;40.70;;;;;;1560999;75;740;-68
2023/06/05 02:01:52;;;;;;;;;;;24.90;41.00;;;;;;1554045;75;703;-65
2023/06/05 02:03:57;;;;;;;;;;;24.80;40.70;;;;;;1554686;75;756;-64
2023/06/05 02:05:57;;;;;;;;;;;24.80;40.60;;;;;;1549621;75;1744;-65
2023/06/05 02:08:04;;;;;;;;;;;24.80;40.60;;;;;;1557960;75;1143;-65
2023/06/05 02:10:05;;;;;;;;;;;24.80;40.50;;;;;;1552265;75;1701;-65
2023/06/05 02:12:07;;;;;;;;;;;24.80;40.50;;;;;;1548750;75;794;-66
2023/06/05 02:14:12;;;;;;;;;;;24.80;40.40;;;;;;1557195;75;635;-65
2023/06/05 02:16:13;;;;;;;;;;;24.80;40.40;;;;;;1532008;75;1935;-65
2023/06/05 02:18:16;;;;;;;;;;;24.80;40.40;;;;;;1549736;75;1126;-65
2023/06/05 02:20:18;;;;;;;;;;;24.80;40.40;;;;;;1558060;75;780;-65
2023/06/05 02:22:23;;;;;;;;;;;24.90;40.50;;;;;;1555110;75;697;-65
2023/06/05 02:24:25;;;;;;;;;;;24.80;40.50;;;;;;1554625;75;1183;-65
2023/06/05 02:26:27;;;;;;;;;;;24.80;40.40;;;;;;1555064;75;799;-65
2023/06/05 02:28:29;;;;;;;;;;;24.80;40.30;;;;;;1556270;75;1125;-65
2023/06/05 02:30:32;;;;;;;;;;;24.80;40.30;;;;;;1551657;75;689;-66
2023/06/05 02:32:35;;;;;;;;;;;24.80;40.40;;;;;;1550219;75;1534;-66
2023/06/05 02:34:37;;;;;;;;;;;24.90;40.40;;;;;;1546960;75;787;-66
2023/06/05 02:36:40;;;;;;;;;;;24.80;40.40;;;;;;1544923;75;733;-66
2023/06/05 02:38:43;;;;;;;;;;;24.80;40.40;;;;;;1553753;75;1145;-66
2023/06/05 02:40:45;;;;;;;;;;;24.80;40.30;;;;;;1554556;75;815;-66
2023/06/05 02:42:46;;;;;;;;;;;24.80;40.40;;;;;;1551906;75;1108;-65
2023/06/05 02:44:48;;;;;;;;;;;24.80;40.40;;;;;;1558205;75;682;-65
2023/06/05 02:46:50;;;;;;;;;;;24.90;40.50;;;;;;1544286;75;1497;-65
2023/06/05 02:48:52;;;;;;;;;;;24.80;40.30;;;;;;1555054;75;1206;-65
2023/06/05 02:50:54;;;;;;;;;;;24.80;40.30;;;;;;1548035;75;733;-65
2023/06/05 02:52:56;;;;;;;;;;;24.90;40.40;;;;;;1560959;75;839;-65
2023/06/05 02:54:58;;;;;;;;;;;24.80;40.30;;;;;;1556488;75;1938;-65
2023/06/05 02:57:00;;;;;;;;;;;24.80;40.30;;;;;;1553917;75;1165;-66
2023/06/05 02:59:08;;;;;;;;;;;24.80;40.40;;;;;;1557534;75;953;-65
2023/06/05 03:01:08;;;;;;;;;;;24.80;40.30;;;;;;1555713;75;1558;-65
2023/06/05 03:03:10;;;;;;;;;;;24.90;40.50;;;;;;1556364;75;1679;-65
2023/06/05 03:05:12;;;;;;;;;;;24.80;40.40;;;;;;1572628;74;703;-66
2023/06/05 03:07:14;;;;;;;;;;;24.80;40.40;;;;;;1549583;75;1122;-66
2023/06/05 03:09:17;;;;;;;;;;;24.80;40.40;;;;;;1557440;75;726;-66
2023/06/05 03:11:20;;;;;;;;;;;24.90;40.50;;;;;;1546645;75;791;-65
2023/06/05 03:13:22;;;;;;;;;;;24.80;40.50;;;;;;1556497;75;750;-65
2023/06/05 03:15:24;;;;;;;;;;;24.80;40.60;;;;;;1567760;75;1930;-66
2023/06/05 03:17:28;;;;;;;;;;;24.80;40.50;;;;;;1551798;75;1134;-65
2023/06/05 03:19:29;;;;;;;;;;;24.80;40.50;;;;;;1559982;75;1741;-65
2023/06/05 03:21:31;;;;;;;;;;;24.80;40.50;;;;;;1556927;75;742;-68
2023/06/05 03:23:33;;;;;;;;;;;24.80;40.50;;;;;;1557327;75;782;-65
2023/06/05 03:25:35;;;;;;;;;;;24.80;40.60;;;;;;1557763;75;636;-65
2023/06/05 03:27:36;;;;;;;;;;;24.80;40.50;;;;;;1558468;75;1164;-66
2023/06/05 03:29:38;;;;;;;;;;;24.80;40.60;;;;;;1551652;75;1534;-65
2023/06/05 03:31:42;;;;;;;;;;;24.80;40.60;;;;;;1560741;75;757;-65
2023/06/05 03:33:44;;;;;;;;;;;24.80;40.50;;;;;;1551721;75;815;-66
2023/06/05 03:35:46;;;;;;;;;;;24.80;40.60;;;;;;1554130;75;1934;-65
2023/06/05 03:37:47;;;;;;;;;;;24.80;40.60;;;;;;1553647;75;1137;-65
2023/06/05 03:39:49;;;;;;;;;;;24.70;40.60;;;;;;1554581;74;681;-65
2023/06/05 03:41:51;;;;;;;;;;;24.80;40.60;;;;;;1562764;75;717;-65
2023/06/05 03:43:53;;;;;;;;;;;24.80;40.50;;;;;;1564240;75;1615;-65
2023/06/05 03:45:55;;;;;;;;;;;24.70;40.70;;;;;;1558441;75;725;-65
2023/06/05 03:47:59;;;;;;;;;;;24.80;40.70;;;;;;1548596;75;1206;-65
2023/06/05 03:50:02;;;;;;;;;;;24.80;40.70;;;;;;1553643;75;1696;-65
2023/06/05 03:52:04;;;;;;;;;;;24.80;40.70;;;;;;1560821;75;735;-65
2023/06/05 03:54:08;;;;;;;;;;;24.70;40.70;;;;;;1556539;75;698;-65
2023/06/05 03:56:11;;;;;;;;;;;24.80;40.80;;;;;;1557880;75;1919;-65
2023/06/05 03:58:16;;;;;;;;;;;24.80;40.70;;;;;;1548564;75;1143;-65
2023/06/05 04:00:18;;;;;;;;;;;24.80;40.70;;;;;;1552042;75;905;-65
2023/06/05 04:02:20;;;;;;;;;;;24.80;40.70;;;;;;1558955;75;803;-64
2023/06/05 04:04:22;;;;;;;;;;;24.70;40.70;;;;;;1563192;75;669;-64
2023/06/05 04:06:24;;;;;;;;;;;24.80;40.80;;;;;;1558485;75;727;-64
2023/06/05 04:08:25;;;;;;;;;;;24.70;40.90;;;;;;1559409;75;1154;-64
2023/06/05 04:10:27;;;;;;;;;;;24.80;40.90;;;;;;1550891;75;1536;-64
2023/06/05 04:12:29;;;;;;;;;;;24.80;40.90;;;;;;1556785;75;791;-65
2023/06/05 04:14:31;;;;;;;;;;;24.80;40.90;;;;;;1561345;75;792;-64
2023/06/05 04:16:34;;;;;;;;;;;24.80;41.00;;;;;;1558359;75;1932;-64
2023/06/05 04:18:36;;;;;;;;;;;24.80;40.90;;;;;;1552894;75;1137;-64
2023/06/05 04:20:37;;;;;;;;;;;24.70;40.90;;;;;;1542254;75;731;-64
2023/06/05 04:22:39;;;;;;;;;;;24.80;41.00;;;;;;1557859;75;866;-64
2023/06/05 04:24:41;;;;;;;;;;;24.80;41.00;;;;;;1554198;75;1316;-64
2023/06/05 04:26:43;;;;;;;;;;;24.80;41.00;;;;;;1549004;75;722;-63
2023/06/05 04:28:50;;;;;;;;;;;24.80;41.00;;;;;;1553768;75;1089;-63
2023/06/05 04:30:49;;;;;;;;;;;24.80;41.00;;;;;;1556758;75;1582;-64
2023/06/05 04:32:54;;;;;;;;;;;24.80;41.10;;;;;;1550329;75;701;-65
2023/06/05 04:34:56;;;;;;;;;;;24.80;41.10;;;;;;1555688;74;770;-64
2023/06/05 04:36:58;;;;;;;;;;;24.80;41.20;;;;;;1547395;74;1931;-64
2023/06/05 04:39:01;;;;;;;;;;;24.80;41.10;;;;;;1552355;75;1223;-64
2023/06/05 04:41:04;;;;;;;;;;;24.80;41.20;;;;;;1557864;74;750;-65
2023/06/05 04:43:08;;;;;;;;;;;24.80;41.20;;;;;;1561848;74;699;-65
2023/06/05 04:45:09;;;;;;;;;;;24.80;41.20;;;;;;1546606;74;1675;-66
2023/06/05 04:47:11;;;;;;;;;;;24.80;41.30;;;;;;1550831;75;1173;-65
2023/06/05 04:49:13;;;;;;;;;;;24.70;41.30;;;;;;1559564;75;654;-66
2023/06/05 04:51:15;;;;;;;;;;;24.80;41.30;;;;;;1547659;75;966;-67
2023/06/05 04:53:17;;;;;;;;;;;24.80;41.30;;;;;;1552907;75;1555;-66
2023/06/05 04:55:19;;;;;;;;;;;24.80;41.30;;;;;;1554927;75;655;-66
2023/06/05 04:57:24;;;;;;;;;;;24.80;41.30;;;;;;1559165;75;1910;-66
2023/06/05 04:59:25;;;;;;;;;;;24.80;41.40;;;;;;1555954;75;1607;-66
2023/06/05 05:01:27;;;;;;;;;;;24.80;41.50;;;;;;1556070;75;643;-66
2023/06/05 05:03:29;;;;;;;;;;;24.80;41.40;;;;;;1553397;75;650;-66
2023/06/05 05:05:31;;;;;;;;;;;24.80;41.50;;;;;;1551559;75;691;-66
2023/06/05 05:07:34;;;;;;;;;;;24.80;41.50;;;;;;1547858;75;1578;-68
2023/06/05 05:09:36;;;;;;;;;;;24.80;41.50;;;;;;1547899;75;781;-66
2023/06/05 05:11:38;;;;;;;;;;;24.80;41.70;;;;;;1547959;74;732;-66
2023/06/05 05:13:39;;;;;;;;;;;24.80;41.80;;;;;;1561648;75;727;-65
2023/06/05 05:15:41;;;;;;;;;;;24.80;41.80;;;;;;1565497;75;1942;-65
2023/06/05 05:17:43;;;;;;;;;;;24.80;41.80;;;;;;1551406;75;1132;-65
2023/06/05 05:19:45;;;;;;;;;;;24.80;41.90;;;;;;1559880;75;747;-65
2023/06/05 05:21:47;;;;;;;;;;;24.70;42.00;;;;;;1556396;75;1559;-64
2023/06/05 05:23:49;;;;;;;;;;;24.80;42.10;;;;;;1556960;75;727;-67
2023/06/05 05:25:51;;;;;;;;;;;24.80;42.10;;;;;;1560809;75;720;-68
2023/06/05 05:27:54;;;;;;;;;;;24.80;42.10;;;;;;1559500;75;1102;-67
2023/06/05 05:29:56;;;;;;;;;;;24.70;41.90;;;;;;1557490;75;644;-67
2023/06/05 05:31:58;;;;;;;;;;;24.80;41.70;;;;;;1560043;75;734;-67
2023/06/05 05:33:59;;;;;;;;;;;24.80;41.70;;;;;;1558777;75;643;-66
2023/06/05 05:36:02;;;;;;;;;;;24.80;41.80;;;;;;1557252;75;1919;-66
2023/06/05 05:38:04;;;;;;;;;;;24.80;41.70;;;;;;1551261;75;1136;-68
2023/06/05 05:40:06;;;;;;;;;;;24.80;41.70;;;;;;1558347;75;742;-68
2023/06/05 05:42:08;;;;;;;;;;;24.70;41.90;;;;;;1560711;75;742;-68
2023/06/05 05:44:10;;;;;;;;;;;24.80;41.80;;;;;;1560838;75;704;-68
2023/06/05 05:46:12;;;;;;;;;;;24.70;41.80;;;;;;1553077;75;1260;-68
2023/06/05 05:48:14;;;;;;;;;;;24.70;41.60;;;;;;1558414;75;1162;-68
2023/06/05 05:50:16;;;;;;;;;;;24.70;41.40;;;;;;1550013;75;1533;-67
2023/06/05 05:52:20;;;;;;;;;;;24.70;41.40;;;;;;1559210;75;792;-67
2023/06/05 05:54:26;;;;;;;;;;;24.70;42.30;;;;;;1553104;75;1653;-67
2023/06/05 05:56:25;;;;;;;;;;;24.70;41.80;;;;;;1554645;75;1936;-69
2023/06/05 05:58:27;;;;;;;;;;;24.70;41.70;;;;;;1557449;75;1145;-68
2023/06/05 06:00:29;;;;;;;;;;;24.70;41.70;;;;;;1559938;75;740;-64
2023/06/05 06:02:32;;;;;;;;;;;24.70;41.60;;;;;;1557549;75;741;-64
2023/06/05 06:04:34;;;;;;;;;;;24.70;41.60;;;;;;1556063;75;1528;-64
2023/06/05 06:06:37;;;;;;;;;;;24.70;41.40;;;;;;1556089;75;690;-64
2023/06/05 06:08:39;;;;;;;;;;;24.80;41.30;;;;;;1550060;75;1153;-63
2023/06/05 06:10:41;;;;;;;;;;;24.70;41.20;;;;;;1539468;74;1272;-64
2023/06/05 06:12:44;;;;;;;;;;;24.80;41.10;;;;;;1547821;75;1243;-64
2023/06/05 06:14:47;;;;;;;;;;;24.70;41.00;;;;;;1563610;74;1270;-64
2023/06/05 06:16:53;;;;;;;;;;;24.80;41.00;;;;;;1549325;75;1923;-63
2023/06/05 06:18:55;;;;;;;;;;;24.80;41.00;;;;;;1558541;75;1131;-63
2023/06/05 06:20:58;;;;;;;;;;;24.70;40.90;;;;;;1553860;75;1579;-64
2023/06/05 06:23:00;;;;;;;;;;;24.80;40.80;;;;;;1560193;75;1312;-63
2023/06/05 06:25:02;;;;;;;;;;;24.70;40.80;;;;;;1556249;75;1405;-64
2023/06/05 06:27:04;;;;;;;;;;;24.70;40.80;;;;;;1554824;75;1348;-63
2023/06/05 06:29:05;;;;;;;;;;;24.80;40.80;;;;;;1550776;74;1386;-64
2023/06/05 06:31:08;;;;;;;;;;;24.80;40.70;;;;;;1549850;75;1474;-64
2023/06/05 06:33:10;;;;;;;;;;;24.70;40.80;;;;;;1550772;75;1375;-64
2023/06/05 06:35:16;;;;;;;;;;;24.70;40.80;;;;;;1553481;75;1304;-63
2023/06/05 06:37:16;;;;;;;;;;;24.70;40.80;;;;;;1552111;75;1922;-64
2023/06/05 06:39:24;;;;;;;;;;;24.80;40.80;;;;;;1555015;75;1482;-64
2023/06/05 06:41:22;;;;;;;;;;;24.70;40.80;;;;;;1555118;75;1497;-64
2023/06/05 06:43:24;;;;;;;;;;;24.70;40.80;;;;;;1552242;75;1344;-64
2023/06/05 06:45:25;;;;;;;;;;;24.80;40.70;;;;;;1553201;75;1515;-64
2023/06/05 06:47:28;;;;;;;;;;;24.80;40.80;;;;;;1550186;74;1558;-63
2023/06/05 06:49:30;;;;;;;;;;;24.80;40.90;;;;;;1559813;74;1233;-64
2023/06/05 06:51:32;;;;;;;;;;;24.70;40.90;;;;;;1555044;75;1233;-64
2023/06/05 06:53:34;;;;;;;;;;;24.70;40.90;;;;;;1550127;75;1116;-63
2023/06/05 06:55:36;;;;;;;;;;;24.70;40.90;;;;;;1553540;75;1471;-64
2023/06/05 06:57:38;;;;;;;;;;;24.70;40.90;;;;;;1557257;75;1924;-64
2023/06/05 06:59:40;;;;;;;;;;;24.70;40.90;;;;;;1552572;75;1541;-64
2023/06/05 07:01:49;;;;;;;;;;;24.70;40.90;;;;;;1551933;75;1315;-63
2023/06/05 07:03:51;;;;;;;;;;;24.70;40.90;;;;;;1549562;75;1375;-63
2023/06/05 07:05:53;;;;;;;;;;;24.70;41.00;;;;;;1554581;75;1356;-64
2023/06/05 07:08:00;;;;;;;;;;;24.70;41.00;;;;;;1554904;74;1354;-63
2023/06/05 07:09:58;;;;;;;;;;;24.70;41.00;;;;;;1551770;75;1854;-63
2023/06/05 07:12:04;;;;;;;;;;;24.70;41.00;;;;;;1549433;75;1428;-66
2023/06/05 07:14:04;;;;;;;;;;;24.60;41.00;;;;;;1554927;74;1530;-64
2023/06/05 07:16:05;;;;;;;;;;;24.70;41.20;;;;;;1547799;75;1279;-64
2023/06/05 07:18:07;;;;;;;;;;;24.70;41.10;;;;;;1545794;75;1937;-64
2023/06/05 07:20:10;;;;;;;;;;;24.70;41.10;;;;;;1558323;74;1497;-64
2023/06/05 07:22:11;;;;;;;;;;;24.70;41.20;;;;;;1566442;74;1234;-65
2023/06/05 07:24:14;;;;;;;;;;;24.70;41.20;;;;;;1563222;74;1461;-65
2023/06/05 07:26:16;;;;;;;;;;;24.70;41.10;;;;;;1562700;74;1495;-65
2023/06/05 07:28:18;;;;;;;;;;;24.70;41.20;;;;;;1565071;74;1311;-64
2023/06/05 07:30:20;;;;;;;;;;;24.70;41.20;;;;;;1565610;74;1614;-63
2023/06/05 07:32:22;;;;;;;;;;;24.70;41.20;;;;;;1562179;74;1415;-63
2023/06/05 07:34:24;;;;;;;;;;;24.70;41.20;;;;;;1564647;74;1437;-64
2023/06/05 07:36:26;;;;;;;;;;;24.70;41.30;;;;;;1563450;74;1469;-63
2023/06/05 07:38:30;;;;;;;;;;;24.70;41.30;;;;;;1569767;74;1947;-64
2023/06/05 07:40:31;;;;;;;;;;;24.70;41.30;;;;;;1561516;74;1670;-63
2023/06/05 07:42:34;;;;;;;;;;;24.70;41.40;;;;;;1563875;74;1544;-64
2023/06/05 07:44:36;;;;;;;;;;;24.70;41.40;;;;;;1561454;74;1294;-68
2023/06/05 07:46:39;;;;;;;;;;;24.70;41.70;;;;;;1565301;74;1279;-63
2023/06/05 07:48:41;;;;;;;;;;;24.60;41.70;;;;;;1563583;74;1633;-64
2023/06/05 07:50:43;;;;;;;;;;;24.60;41.80;;;;;;1555011;74;1361;-64
2023/06/05 07:52:45;;;;;;;;;;;24.70;41.80;;;;;;1566655;74;1314;-63
2023/06/05 07:54:47;;;;;;;;;;;24.70;42.00;;;;;;1558303;74;1176;-63
2023/06/05 07:56:52;;;;;;;;;;;24.60;41.80;;;;;;1554009;74;1955;-63
2023/06/05 07:58:53;;;;;;;;;;;24.70;42.00;;;;;;1562168;74;1301;-63
2023/06/05 08:00:56;;;;;;;;;;;24.60;42.00;;;;;;1567065;74;1271;-63
2023/06/05 08:02:59;;;;;;;;;;;24.60;41.90;;;;;;1562115;74;1073;-64
2023/06/05 08:05:01;;;;;;;;;;;24.70;42.20;;;;;;1563870;74;1086;-64
2023/06/05 08:07:04;;;;;;;;;;;24.70;42.10;;;;;;1552682;74;1530;-64
2023/06/05 08:09:09;;;;;;;;;;;24.70;42.20;;;;;;1563261;74;1332;-64
2023/06/05 08:11:10;;;;;;;;;;;24.70;42.20;;;;;;1562495;74;1658;-63
2023/06/05 08:13:12;;;;;;;;;;;24.70;42.20;;;;;;1559268;74;1108;-65
2023/06/05 08:15:14;;;;;;;;;;;24.70;42.30;;;;;;1558193;74;1535;-64
2023/06/05 08:17:15;;;;;;;;;;;24.70;42.20;;;;;;1559091;74;1956;-65
2023/06/05 08:19:17;;;;;;;;;;;24.70;42.20;;;;;;1554746;75;1502;-64
2023/06/05 08:21:20;;;;;;;;;;;24.70;42.30;;;;;;1562542;75;1349;-64
2023/06/05 08:23:21;;;;;;;;;;;24.60;42.10;;;;;;1553694;75;1478;-65
2023/06/05 08:25:27;;;;;;;;;;;24.60;42.20;;;;;;1560523;74;1885;-66
2023/06/05 08:27:28;;;;;;;;;;;24.70;42.30;;;;;;1553429;75;1357;-65
2023/06/05 08:29:30;;;;;;;;;;;24.60;42.10;;;;;;1548160;75;1270;-64
2023/06/05 08:31:34;;;;;;;;;;;24.60;42.10;;;;;;1551274;75;1515;-65
2023/06/05 08:33:36;;;;;;;;;;;24.70;42.20;;;;;;1560493;75;1480;-66
2023/06/05 08:35:39;;;;;;;;;;;24.60;42.10;;;;;;1556279;75;1392;-66
2023/06/05 08:37:41;;;;;;;;;;;24.70;42.20;;;;;;1556602;75;1938;-65
2023/06/05 08:39:43;;;;;;;;;;;24.70;42.10;;;;;;1551905;75;1084;-65
2023/06/05 08:41:45;;;;;;;;;;;24.70;42.10;;;;;;1549914;74;1435;-63
2023/06/05 08:43:47;;;;;;;;;;;24.60;41.90;;;;;;1554074;75;1322;-65
2023/06/05 08:45:50;;;;;;;;;;;24.60;41.90;;;;;;1558730;74;1492;-65
2023/06/05 08:47:52;;;;;;;;;;;24.70;42.00;;;;;;1551239;75;1348;-65
2023/06/05 08:49:54;;;;;;;;;;;24.60;41.80;;;;;;1555808;74;1486;-63
2023/06/05 08:52:02;;;;;;;;;;;24.70;41.90;;;;;;1554447;75;1499;-64
2023/06/05 08:54:08;;;;;;;;;;;24.60;41.80;;;;;;1533333;75;1348;-64
2023/06/05 08:56:08;;;;;;;;;;;24.70;41.90;;;;;;1552037;75;1496;-62
2023/06/05 08:58:10;;;;;;;;;;;24.70;42.00;;;;;;1556265;75;1940;-63
2023/06/05 09:00:14;;;;;;;;;;;24.70;42.00;;;;;;1551638;75;1632;-64
2023/06/05 09:02:16;;;;;;;;;;;24.70;41.90;;;;;;1559311;75;1275;-71
2023/06/05 09:04:18;;;;;;;;;;;24.70;41.80;;;;;;1559727;75;1330;-61
2023/06/05 09:06:20;;;;;;;;;;;24.60;41.70;;;;;;1556427;75;1515;-62
2023/06/05 09:08:26;;;;;;;;;;;24.70;41.80;;;;;;1558128;75;1413;-63
2023/06/05 09:10:28;;;;;;;;;;;24.60;41.70;;;;;;1552284;75;1629;-62
2023/06/05 09:12:30;;;;;;;;;;;24.70;41.80;;;;;;1552101;74;1283;-62
2023/06/05 09:14:36;;;;;;;;;;;24.70;41.80;;;;;;1556310;74;1223;-62
2023/06/05 09:16:45;;;;;;;;;;;24.70;41.80;;;;;;1545731;75;963;-63
2023/06/05 09:18:54;;;;;;;;;;;24.60;41.70;;;;;;1562238;75;1925;-63
2023/06/05 09:20:57;;;;;;;;;;;24.70;41.80;;;;;;1571039;74;1515;-64
2023/06/05 09:22:59;;;;;;;;;;;24.70;41.70;;;;;;1562150;74;709;-66
2023/06/05 09:25:02;;;;;;;;;;;24.70;41.70;;;;;;1558591;74;742;-71
2023/06/05 09:27:12;;;;;;;;;;;24.70;41.70;;;;;;1566678;74;1198;-70
2023/06/05 09:29:11;;;;;;;;;;;24.70;41.70;;;;;;1559849;74;1640;-69
2023/06/05 09:31:13;;;;;;;;;;;24.70;41.80;;;;;;1568296;74;786;-69
2023/06/05 09:33:15;;;;;;;;;;;24.60;41.60;;;;;;1571948;74;712;-70
2023/06/05 09:35:17;;;;;;;;;;;24.60;41.60;;;;;;1569157;74;1530;-71
2023/06/05 09:37:19;;;;;;;;;;;24.60;41.60;;;;;;1567715;74;1951;-69
2023/06/05 09:39:21;;;;;;;;;;;24.70;41.70;;;;;;1560871;74;677;-70
2023/06/05 09:41:23;;;;;;;;;;;24.70;41.70;;;;;;1568027;74;778;-71
2023/06/05 09:43:25;;;;;;;;;;;24.70;41.70;;;;;;1572884;74;1316;-69
2023/06/05 09:45:28;;;;;;;;;;;24.60;41.50;;;;;;1571738;74;740;-63
2023/06/05 09:47:30;;;;;;;;;;;24.70;41.70;;;;;;1563378;74;1841;-63
2023/06/05 09:49:33;;;;;;;;;;;24.60;41.60;;;;;;1563857;74;1726;-64
2023/06/05 09:51:35;;;;;;;;;;;24.60;41.60;;;;;;1562691;74;778;-65
2023/06/05 09:53:38;;;;;;;;;;;24.60;41.60;;;;;;1568687;74;773;-64
2023/06/05 09:55:40;;;;;;;;;;;24.70;41.70;;;;;;1569612;74;671;-64
2023/06/05 09:57:42;;;;;;;;;;;24.60;41.50;;;;;;1570624;74;1931;-66
2023/06/05 09:59:57;;;;;;;;;;;24.70;41.60;;;;;;1564814;74;693;-65
2023/06/05 10:02:06;;;;;;;;;;;24.70;41.70;;;;;;1570059;74;1281;-66
2023/06/05 10:04:09;;;;;;;;;;;24.70;41.60;;;;;;1569462;74;834;-65
2023/06/05 10:06:11;;;;;;;;;;;24.60;41.40;;;;;;1569583;74;704;-65
2023/06/05 10:08:14;;;;;;;;;;;24.60;41.40;;;;;;1571090;74;1183;-66
2023/06/05 10:10:15;;;;;;;;;;;24.60;41.40;;;;;;1570863;74;726;-65
2023/06/05 10:12:17;;;;;;;;;;;24.70;41.50;;;;;;1561649;74;979;-65
2023/06/05 10:14:19;;;;;;;;;;;24.60;41.30;;;;;;1564814;74;1115;-66
2023/06/05 10:16:21;;;;;;;;;;;24.60;41.30;;;;;;1567541;74;1477;-65
2023/06/05 10:18:23;;;;;;;;;;;24.70;41.40;;;;;;1551701;74;1959;-66
2023/06/05 10:20:25;;;;;;;;;;;24.60;41.30;;;;;;1560355;74;1101;-65
2023/06/05 10:22:27;;;;;;;;;;;24.70;41.40;;;;;;1566639;74;695;-65
2023/06/05 10:24:30;;;;;;;;;;;24.60;41.30;;;;;;1567458;74;722;-66
2023/06/05 10:26:49;;;;;;;;;;;24.60;41.20;;;;;;1563791;74;740;-65
2023/06/05 10:28:53;;;;;;;;;;;24.60;41.20;;;;;;1564162;74;1134;-65
2023/06/05 10:31:13;;;;;;;;;;;24.60;41.20;;;;;;1563836;74;1872;-65
2023/06/05 10:33:19;;;;;;;;;;;24.60;41.20;;;;;;1565524;74;717;-65
2023/06/05 10:35:40;;;;;;;;;;;24.60;41.20;;;;;;1562500;74;1898;-66
2023/06/05 10:37:46;;;;;;;;;;;24.70;41.30;;;;;;1562310;74;1934;-65
2023/06/05 10:39:49;;;;;;;;;;;24.60;41.20;;;;;;1557912;74;1747;-65
2023/06/05 10:41:51;;;;;;;;;;;24.70;41.40;;;;;;1562019;74;796;-66
2023/06/05 10:43:54;;;;;;;;;;;24.70;41.50;;;;;;1568484;74;1206;-65
2023/06/05 10:45:57;;;;;;;;;;;24.60;41.40;;;;;;1559566;74;1421;-66
2023/06/05 10:47:59;;;;;;;;;;;24.70;41.50;;;;;;1561514;74;1093;-65
2023/06/05 10:50:21;;;;;;;;;;;24.60;41.40;;;;;;1560530;74;764;-65
2023/06/05 10:52:38;;;;;;;;;;;24.60;41.20;;;;;;1556642;74;711;-65
2023/06/05 10:54:47;;;;;;;;;;;24.60;41.30;;;;;;1564310;74;702;-66
2023/06/05 10:56:55;;;;;;;;;;;24.60;41.30;;;;;;1550484;74;772;-65
2023/06/05 10:59:13;;;;;;;;;;;24.60;41.30;;;;;;1565946;74;1928;-66
2023/06/05 11:01:21;;;;;;;;;;;24.60;41.30;;;;;;1550716;74;712;-66
2023/06/05 11:03:25;;;;;;;;;;;24.60;41.30;;;;;;1564779;74;782;-66
2023/06/05 11:05:27;;;;;;;;;;;24.60;41.30;;;;;;1561625;74;1592;-66
2023/06/05 11:07:30;;;;;;;;;;;24.70;41.40;;;;;;1560131;74;1176;-66
2023/06/05 11:09:32;;;;;;;;;;;24.60;41.20;;;;;;1552651;74;741;-66
2023/06/05 11:11:51;;;;;;;;;;;24.60;41.10;;;;;;1559070;74;782;-66
2023/06/05 11:13:55;;;;;;;;;;;24.60;41.20;;;;;;1564463;74;1514;-66
2023/06/05 11:15:57;;;;;;;;;;;24.60;41.10;;;;;;1551146;74;733;-67
2023/06/05 11:17:59;;;;;;;;;;;24.60;41.10;;;;;;1556093;74;1950;-66
2023/06/05 11:20:05;;;;;;;;;;;24.60;41.10;;;;;;1565883;75;1111;-66
2023/06/05 11:22:11;;;;;;;;;;;24.60;41.00;;;;;;1520456;77;1662;-66
2023/06/05 11:24:16;;;;;;;;;;;24.60;41.00;;;;;;1485003;79;1569;-66
2023/06/05 11:26:36;;;;;;;;;;;24.60;40.90;;;;;;1480138;78;1452;-66
2023/06/05 11:28:39;;;;;;;;;;;24.60;40.80;;;;;;1472957;78;1169;-66
2023/06/05 11:30:44;;;;;;;;;;;24.60;40.80;;;;;;1482730;79;776;-67
2023/06/05 11:32:46;;;;;;;;;;;24.70;40.90;;;;;;1491052;79;723;-67
2023/06/05 11:34:48;;;;;;;;;;;24.60;40.60;;;;;;1492387;79;735;-67
2023/06/05 11:36:50;;;;;;;;;;;24.60;40.70;;;;;;1487451;79;713;-67
2023/06/05 11:38:57;;;;;;;;;;;24.60;40.50;;;;;;1490672;78;1940;-67
2023/06/05 11:40:59;;;;;;;;;;;24.60;40.40;;;;;;1510559;77;1725;-66
2023/06/05 11:43:08;;;;;;;;;;;24.60;40.30;;;;;;1518437;78;814;-65
2023/06/05 11:45:12;;;;;;;;;;;24.60;40.30;;;;;;1519729;76;1366;-66
2023/06/05 11:47:26;;;;;;;;;;;24.70;40.10;;;;;;1546601;75;1638;-65
2023/06/05 11:49:28;;;;;;;;;;;24.60;40.50;;;;;;1551451;75;775;-65
2023/06/05 11:51:34;;;;;;;;;;;24.60;40.00;;;;;;1556366;75;960;-65
2023/06/05 11:53:37;;;;;;;;;;;24.70;40.40;;;;;;1561693;75;755;-65
2023/06/05 11:57:54;;;;;;;;;;;24.60;40.30;;;;;;1555790;75;1189;-65
2023/06/05 11:59:56;;;;;;;;;;;24.60;40.00;;;;;;1551193;75;1915;-66
2023/06/05 12:01:58;;;;;;;;;;;24.50;40.00;;;;;;1551147;75;740;-65
2023/06/05 12:04:04;;;;;;;;;;;24.70;40.20;;;;;;1554807;75;827;-66
2023/06/05 12:06:06;;;;;;;;;;;24.70;40.10;;;;;;1557505;75;1586;-65
2023/06/05 12:08:28;;;;;;;;;;;24.60;39.70;;;;;;1554453;75;1126;-65
2023/06/05 12:10:40;;;;;;;;;;;24.60;39.90;;;;;;1555430;74;703;-65
2023/06/05 12:12:39;;;;;;;;;;;24.70;40.00;;;;;;1554926;75;1577;-66
2023/06/05 12:14:41;;;;;;;;;;;24.60;39.90;;;;;;1547930;74;1710;-66